Terminal Aerodrome Forecast
Issued by NWS Atlanta, GA

Current Version | Previous Version | Text Only | Print | Product List | Glossary On
Versions: 1 2 3 4 5 6 7 8 9 10 11 12 13 14 15 16 17 18 19 20 21 22 23 24 25 26 27 28 29 30 31 32 33 34 35
199
FTUS42 KFFC 260534
TAFAHN
TAF
KAHN 260534Z 2606/2706 29008KT P6SM SKC
     FM260900 30005KT P6SM SKC
     FM261700 VRB03KT P6SM SKC
     FM270000 00000KT P6SM SCT250=

USA.gov is the U.S. government's official web portal to all federal, state and local government web resources and services.